Time;durP1;ratioP1;P1;durP2;ratioP2;P2;SDS_P1;SDS_P2;PMS_P1;PMS_P2;Temp;Humidity;BMP_temperature;BMP_pressure;BME280_temperature;BME280_humidity;BME280_pressure;Samples;Min_cycle;Max_cycle;Signal;HPM_P1;HPM_P2
2022/07/12 00:01:55;;;;;;;1.10;0.52;;;22.80;65.10;;;;;;5085867;27;20101;-21
2022/07/12 00:04:20;;;;;;;0.80;0.60;;;22.70;65.30;;;;;;5084847;28;20429;-22
2022/07/12 00:06:46;;;;;;;1.10;0.70;;;22.80;65.10;;;;;;5087092;27;20048;-30
2022/07/12 00:09:11;;;;;;;0.95;0.75;;;22.80;64.90;;;;;;5086551;27;20531;-22
2022/07/12 00:11:37;;;;;;;0.80;0.50;;;22.90;64.80;;;;;;5082943;27;20048;-21
2022/07/12 00:14:03;;;;;;;0.85;0.50;;;22.80;65.00;;;;;;5086558;27;20043;-22
2022/07/12 00:16:29;;;;;;;1.02;0.60;;;22.80;65.00;;;;;;5083075;27;20060;-22
2022/07/12 00:18:55;;;;;;;1.48;0.60;;;22.80;65.10;;;;;;5086221;27;20036;-22
2022/07/12 00:21:20;;;;;;;1.92;0.75;;;22.70;65.20;;;;;;5084882;27;20047;-22
2022/07/12 00:23:46;;;;;;;0.70;0.50;;;22.70;65.20;;;;;;5083331;27;20056;-22
2022/07/12 00:26:11;;;;;;;1.45;0.70;;;22.70;65.20;;;;;;5086204;28;20417;-22
2022/07/12 00:28:37;;;;;;;0.77;0.60;;;22.70;65.30;;;;;;5085586;27;20044;-21
2022/07/12 00:31:03;;;;;;;0.80;0.40;;;22.70;65.30;;;;;;5083742;27;20048;-20
2022/07/12 00:33:28;;;;;;;1.25;0.60;;;22.70;65.00;;;;;;5086304;27;20036;-19
2022/07/12 00:35:54;;;;;;;3.03;0.55;;;22.70;65.70;;;;;;5083005;27;20040;-20
2022/07/12 00:38:20;;;;;;;0.68;0.35;;;22.70;64.60;;;;;;5084952;28;21731;-25
2022/07/12 00:40:45;;;;;;;0.60;0.60;;;22.70;64.70;;;;;;5084818;27;20131;-20
2022/07/12 00:43:11;;;;;;;1.15;0.60;;;22.70;64.60;;;;;;5084663;28;20033;-29
2022/07/12 00:45:37;;;;;;;2.22;0.80;;;22.70;64.40;;;;;;5087722;27;20434;-20
2022/07/12 00:48:02;;;;;;;0.52;0.40;;;22.70;64.40;;;;;;5084911;27;20448;-20
2022/07/12 00:50:28;;;;;;;0.80;0.70;;;22.70;64.10;;;;;;5081977;28;20047;-20
2022/07/12 00:52:54;;;;;;;1.77;0.45;;;22.70;64.10;;;;;;5084110;27;20070;-19
2022/07/12 00:55:20;;;;;;;0.95;0.50;;;22.60;65.00;;;;;;5083022;27;20051;-20
2022/07/12 00:57:47;;;;;;;1.30;0.90;;;22.70;64.40;;;;;;5083330;28;20032;-20
2022/07/12 01:00:15;;;;;;;2.15;0.50;;;22.60;64.10;;;;;;5084943;27;20047;-20
2022/07/12 01:02:40;;;;;;;2.78;0.50;;;22.60;64.10;;;;;;5083167;27;20040;-19
2022/07/12 01:05:07;;;;;;;0.60;0.60;;;22.60;64.00;;;;;;5084348;27;20398;-20
2022/07/12 01:07:34;;;;;;;1.10;0.55;;;22.60;63.90;;;;;;5082658;28;20036;-21
2022/07/12 01:10:00;;;;;;;1.63;0.63;;;22.50;64.10;;;;;;5085728;27;20418;-20
2022/07/12 01:12:26;;;;;;;0.73;0.45;;;22.60;64.10;;;;;;5084940;28;20036;-20
2022/07/12 01:14:52;;;;;;;1.65;0.40;;;22.60;64.20;;;;;;5080932;27;20100;-19
2022/07/12 01:17:22;;;;;;;0.80;0.60;;;22.60;64.20;;;;;;5082649;27;20040;-20
2022/07/12 01:19:48;;;;;;;0.75;0.60;;;22.60;64.20;;;;;;5082354;27;20047;-19
2022/07/12 01:22:15;;;;;;;0.73;0.47;;;22.50;65.00;;;;;;5085039;27;20052;-20
2022/07/12 01:24:41;;;;;;;0.45;0.45;;;22.50;64.30;;;;;;5086763;27;20114;-20
2022/07/12 01:27:06;;;;;;;6.57;0.60;;;22.50;64.40;;;;;;5083631;28;20185;-20
2022/07/12 01:29:32;;;;;;;0.57;0.40;;;22.50;64.30;;;;;;5085024;27;20047;-20
2022/07/12 01:34:59;;;;;;;0.40;0.40;;;22.50;64.40;;;;;;5082177;28;20127;-20
2022/07/12 01:37:29;;;;;;;0.60;0.30;;;22.50;64.50;;;;;;5084203;27;20135;-19
2022/07/12 01:39:56;;;;;;;1.55;0.47;;;22.40;64.60;;;;;;5085590;27;20101;-19
2022/07/12 01:42:22;;;;;;;0.40;0.40;;;22.40;64.90;;;;;;5081603;28;20044;-20
2022/07/12 01:44:49;;;;;;;0.85;0.40;;;22.40;65.70;;;;;;5083420;27;20050;-20
2022/07/12 01:47:15;;;;;;;3.83;0.70;;;22.30;65.10;;;;;;5083296;27;20449;-28
2022/07/12 01:49:41;;;;;;;0.82;0.50;;;22.30;65.10;;;;;;5082683;27;20514;-19
2022/07/12 01:52:06;;;;;;;0.82;0.60;;;22.30;65.30;;;;;;5084225;27;20067;-19
2022/07/12 01:54:32;;;;;;;0.40;0.40;;;22.20;65.30;;;;;;5086252;27;20093;-20
2022/07/12 01:56:58;;;;;;;0.95;0.52;;;22.20;65.40;;;;;;5083569;27;20036;-20
2022/07/12 01:59:23;;;;;;;0.82;0.32;;;22.20;65.30;;;;;;5083391;27;20037;-19
2022/07/12 02:01:49;;;;;;;1.90;0.35;;;22.20;65.30;;;;;;5064287;28;20433;-20
2022/07/12 02:04:18;;;;;;;0.47;0.40;;;22.30;65.40;;;;;;5083791;27;20093;-20
2022/07/12 02:06:46;;;;;;;0.60;0.30;;;22.30;65.50;;;;;;5084429;28;20034;-19
2022/07/12 02:09:12;;;;;;;0.40;0.40;;;22.30;65.40;;;;;;5083220;27;20062;-20
2022/07/12 02:11:38;;;;;;;0.68;0.40;;;22.20;65.30;;;;;;5080612;27;20032;-28
2022/07/12 02:14:03;;;;;;;1.30;0.57;;;22.20;65.30;;;;;;5082933;27;20052;-21
2022/07/12 02:16:29;;;;;;;0.40;0.40;;;22.20;65.50;;;;;;5084573;27;20501;-19
2022/07/12 02:18:55;;;;;;;0.68;0.68;;;22.20;65.50;;;;;;5085300;27;20037;-21
2022/07/12 02:21:20;;;;;;;1.15;0.40;;;22.20;65.60;;;;;;5081834;27;20036;-20
2022/07/12 02:23:46;;;;;;;0.88;0.60;;;22.10;66.00;;;;;;5083384;27;20501;-19
2022/07/12 02:26:11;;;;;;;0.40;0.40;;;22.10;66.00;;;;;;5083305;28;20111;-20
2022/07/12 02:28:37;;;;;;;0.73;0.47;;;22.10;66.00;;;;;;5082011;27;20082;-20
2022/07/12 02:31:02;;;;;;;1.25;0.45;;;22.10;66.00;;;;;;5083376;27;20032;-20
2022/07/12 02:33:28;;;;;;;0.47;0.40;;;22.10;66.10;;;;;;5085022;27;20082;-20
2022/07/12 02:35:53;;;;;;;0.50;0.40;;;22.00;66.10;;;;;;5082126;28;20032;-27
2022/07/12 02:38:21;;;;;;;0.50;0.40;;;22.00;66.30;;;;;;5083608;28;20044;-20
2022/07/12 02:40:55;;;;;;;0.57;0.47;;;22.10;66.30;;;;;;5081730;27;20572;-20
2022/07/12 02:43:30;;;;;;;0.73;0.50;;;22.00;66.20;;;;;;5084707;28;20066;-20
2022/07/12 02:46:03;;;;;;;0.77;0.55;;;22.00;67.10;;;;;;5082373;27;20462;-19
2022/07/12 02:48:29;;;;;;;0.35;0.30;;;22.00;66.40;;;;;;5081184;27;20559;-21
2022/07/12 02:50:54;;;;;;;0.50;0.50;;;22.00;66.70;;;;;;5083745;27;20028;-20
2022/07/12 02:53:20;;;;;;;0.65;0.40;;;22.00;67.10;;;;;;5088369;27;20024;-20
2022/07/12 02:55:46;;;;;;;1.15;0.52;;;21.90;67.60;;;;;;5085025;28;20409;-20
2022/07/12 02:58:14;;;;;;;1.60;0.60;;;21.90;67.70;;;;;;5088383;28;20044;-19
2022/07/12 03:00:40;;;;;;;1.02;0.32;;;22.00;68.70;;;;;;5086235;28;20045;-25
2022/07/12 03:03:07;;;;;;;1.63;0.73;;;22.00;68.20;;;;;;5085256;27;20756;-20
2022/07/12 03:05:34;;;;;;;0.95;0.50;;;21.90;68.20;;;;;;5087514;27;20032;-19
2022/07/12 03:08:00;;;;;;;0.95;0.40;;;21.90;68.20;;;;;;5085099;27;20036;-19
2022/07/12 03:10:25;;;;;;;1.02;0.60;;;21.80;68.30;;;;;;5088702;27;20084;-20
2022/07/12 03:12:51;;;;;;;0.88;0.68;;;21.80;68.20;;;;;;5087758;27;20537;-20
2022/07/12 03:15:16;;;;;;;1.50;0.60;;;21.80;68.10;;;;;;5087091;27;20047;-19
2022/07/12 03:17:42;;;;;;;0.75;0.60;;;21.80;68.00;;;;;;5088086;28;20105;-19
2022/07/12 03:20:11;;;;;;;1.30;0.60;;;21.70;68.10;;;;;;5086951;27;20074;-20
2022/07/12 03:22:37;;;;;;;0.57;0.50;;;21.70;68.40;;;;;;5085920;27;20040;-25
2022/07/12 03:25:02;;;;;;;1.80;0.50;;;21.70;68.60;;;;;;5088147;28;20448;-20
2022/07/12 03:27:28;;;;;;;0.60;0.60;;;21.70;68.80;;;;;;5088673;27;20498;-19
2022/07/12 03:29:54;;;;;;;1.63;0.73;;;21.70;68.90;;;;;;5083837;27;20100;-20
2022/07/12 03:32:19;;;;;;;0.68;0.63;;;21.70;69.20;;;;;;5087047;27;20082;-20
2022/07/12 03:34:45;;;;;;;0.82;0.70;;;21.60;69.40;;;;;;5086567;28;20036;-19
2022/07/12 03:37:10;;;;;;;0.73;0.63;;;21.60;69.30;;;;;;5086096;27;20406;-20
2022/07/12 03:39:36;;;;;;;2.17;0.73;;;21.60;69.40;;;;;;5086602;27;20414;-20
2022/07/12 03:42:02;;;;;;;2.17;0.65;;;21.60;69.40;;;;;;5085590;27;20109;-20
2022/07/12 03:44:30;;;;;;;0.70;0.70;;;21.60;69.10;;;;;;5085151;27;20068;-19
2022/07/12 03:46:55;;;;;;;1.73;0.55;;;21.60;69.00;;;;;;5087370;27;20097;-19
2022/07/12 03:49:21;;;;;;;0.70;0.70;;;21.70;68.80;;;;;;5087174;27;20060;-19
2022/07/12 03:51:46;;;;;;;7.07;0.63;;;21.60;68.70;;;;;;5088135;28;20044;-20
2022/07/12 03:54:12;;;;;;;1.02;0.57;;;21.50;69.00;;;;;;5087093;27;20044;-20
2022/07/12 03:59:22;;;;;;;0.95;0.70;;;21.50;69.10;;;;;;5081815;28;20645;-19
2022/07/12 04:01:48;;;;;;;1.00;0.47;;;21.40;69.00;;;;;;5086402;27;20521;-20
2022/07/12 04:04:13;;;;;;;1.13;0.55;;;21.40;69.00;;;;;;5084753;27;20048;-20
2022/07/12 04:06:39;;;;;;;1.55;0.75;;;21.50;68.90;;;;;;5085770;28;20040;-20
2022/07/12 04:09:05;;;;;;;1.60;0.73;;;21.40;68.90;;;;;;5085064;27;20124;-20
2022/07/12 04:11:31;;;;;;;1.08;0.68;;;21.40;70.00;;;;;;5087322;27;20044;-19
2022/07/12 04:13:57;;;;;;;1.42;0.60;;;21.40;69.40;;;;;;5081811;28;20045;-20
2022/07/12 04:16:22;;;;;;;1.08;0.60;;;21.30;69.60;;;;;;5084928;28;20123;-20
2022/07/12 04:18:48;;;;;;;0.93;0.55;;;21.30;69.90;;;;;;5085695;28;20044;-20
2022/07/12 04:21:13;;;;;;;1.48;0.68;;;21.30;70.40;;;;;;5084576;27;20055;-20
2022/07/12 04:23:39;;;;;;;1.10;0.60;;;21.30;70.30;;;;;;5084492;27;20048;-19
2022/07/12 04:26:05;;;;;;;1.20;0.80;;;21.40;70.30;;;;;;5085496;27;20040;-20
2022/07/12 04:28:30;;;;;;;1.27;0.70;;;21.30;70.70;;;;;;5086347;27;20126;-21
2022/07/12 04:30:56;;;;;;;0.70;0.70;;;21.20;71.00;;;;;;5084770;27;20036;-19
2022/07/12 04:33:22;;;;;;;1.92;1.10;;;21.30;70.80;;;;;;5087135;27;20193;-19
2022/07/12 04:35:47;;;;;;;1.00;0.63;;;21.20;71.20;;;;;;5083875;28;20048;-19
2022/07/12 04:38:13;;;;;;;0.90;0.50;;;21.20;71.60;;;;;;5080844;27;20567;-19
2022/07/12 04:40:38;;;;;;;0.77;0.60;;;21.20;71.50;;;;;;5085145;27;20533;-20
2022/07/12 04:43:04;;;;;;;1.70;0.90;;;21.20;71.40;;;;;;5084382;27;20063;-20
2022/07/12 04:45:30;;;;;;;0.80;0.80;;;21.20;71.50;;;;;;5086937;27;20501;-20
2022/07/12 04:47:55;;;;;;;0.70;0.70;;;21.20;71.60;;;;;;5083693;28;20044;-26
2022/07/12 04:50:21;;;;;;;0.93;0.80;;;21.10;72.20;;;;;;5085140;28;20043;-20
2022/07/12 04:52:47;;;;;;;1.25;0.60;;;21.10;71.40;;;;;;5084576;27;20036;-20
2022/07/12 04:55:12;;;;;;;0.50;0.50;;;21.20;71.00;;;;;;5085414;27;21302;-19
2022/07/12 04:57:38;;;;;;;0.85;0.68;;;21.20;70.50;;;;;;5086183;28;20533;-20
2022/07/12 05:00:07;;;;;;;1.15;0.80;;;21.30;70.60;;;;;;5082739;27;20044;-20
2022/07/12 05:02:33;;;;;;;0.63;0.60;;;21.20;70.70;;;;;;5085138;27;20051;-19
2022/07/12 05:04:59;;;;;;;1.00;0.60;;;21.20;70.70;;;;;;5083414;27;20040;-20
2022/07/12 05:07:25;;;;;;;1.38;0.90;;;21.20;70.50;;;;;;5084818;27;20417;-20
2022/07/12 05:09:51;;;;;;;2.72;0.47;;;21.30;70.40;;;;;;5087721;27;20525;-20
2022/07/12 05:12:17;;;;;;;0.50;0.50;;;21.30;70.40;;;;;;5081038;27;20040;-19
2022/07/12 05:14:43;;;;;;;1.00;0.63;;;21.40;70.20;;;;;;5081853;27;20044;-19
2022/07/12 05:17:09;;;;;;;0.65;0.60;;;21.30;70.50;;;;;;5077412;27;20076;-20
2022/07/12 05:19:34;;;;;;;0.77;0.32;;;21.20;70.50;;;;;;4723830;27;10000547;-20
2022/07/12 05:22:02;;;;;;;0.60;0.40;;;21.20;70.50;;;;;;5079507;27;20044;-19
2022/07/12 05:24:27;;;;;;;0.68;0.68;;;21.20;70.50;;;;;;5079610;28;20135;-20
2022/07/12 05:26:53;;;;;;;0.55;0.40;;;21.20;70.40;;;;;;5079457;28;20126;-19
2022/07/12 05:29:18;;;;;;;1.63;0.25;;;21.20;70.30;;;;;;5078160;27;20064;-20
2022/07/12 05:31:44;;;;;;;0.75;0.40;;;21.20;70.30;;;;;;5078434;27;20044;-19
2022/07/12 05:34:10;;;;;;;0.45;0.32;;;21.30;70.10;;;;;;5078742;27;20044;-20
2022/07/12 05:36:35;;;;;;;0.80;0.40;;;21.20;70.20;;;;;;5080260;27;20043;-20
2022/07/12 05:39:01;;;;;;;1.85;0.50;;;21.10;70.50;;;;;;5074053;27;20044;-19
2022/07/12 05:41:26;;;;;;;1.08;0.40;;;21.10;70.50;;;;;;5075260;28;20052;-19
2022/07/12 05:43:52;;;;;;;1.70;0.52;;;21.10;70.70;;;;;;5081233;27;20590;-20
2022/07/12 05:46:17;;;;;;;0.82;0.38;;;21.10;70.60;;;;;;5074078;27;20581;-19
2022/07/12 05:48:43;;;;;;;1.77;0.40;;;21.10;70.80;;;;;;5073681;28;20044;-20
2022/07/12 05:53:53;;;;;;;0.47;0.30;;;21.20;70.50;;;;;;5070770;27;20410;-20
2022/07/12 05:56:18;;;;;;;0.55;0.50;;;21.20;70.50;;;;;;5069756;27;20052;-19
2022/07/12 05:58:44;;;;;;;0.40;0.40;;;21.20;70.90;;;;;;5074487;28;20067;-26
2022/07/12 06:01:09;;;;;;;1.48;0.32;;;21.30;70.10;;;;;;5080006;27;20109;-19
2022/07/12 06:03:35;;;;;;;3.65;0.40;;;21.30;69.90;;;;;;5075292;27;20040;-21
2022/07/12 06:06:00;;;;;;;2.05;0.60;;;21.30;69.80;;;;;;5075673;28;20139;-19
2022/07/12 06:08:26;;;;;;;2.35;0.50;;;21.30;69.80;;;;;;5078270;28;20397;-19
2022/07/12 06:10:51;;;;;;;1.40;0.55;;;21.30;69.80;;;;;;5077355;27;20131;-19
2022/07/12 06:13:17;;;;;;;1.95;0.52;;;21.30;69.80;;;;;;5077438;27;20047;-20
2022/07/12 06:15:43;;;;;;;3.50;0.68;;;21.40;69.70;;;;;;5080384;27;20055;-21
2022/07/12 06:18:08;;;;;;;2.75;0.50;;;21.40;69.40;;;;;;5077233;27;20056;-20
2022/07/12 06:20:34;;;;;;;2.83;0.52;;;21.40;69.50;;;;;;5074023;27;20143;-20
2022/07/12 06:22:59;;;;;;;1.95;0.50;;;21.40;69.20;;;;;;5076688;28;20040;-26
2022/07/12 06:25:25;;;;;;;1.98;0.40;;;21.50;69.20;;;;;;5072250;28;20064;-20
2022/07/12 06:27:50;;;;;;;1.17;0.50;;;21.50;69.10;;;;;;5078198;27;20031;-20
2022/07/12 06:30:20;;;;;;;1.70;0.60;;;21.50;69.20;;;;;;5081653;27;20050;-19
2022/07/12 06:32:46;;;;;;;0.47;0.40;;;21.60;69.30;;;;;;5082351;27;20032;-20
2022/07/12 06:35:12;;;;;;;3.08;0.40;;;21.60;69.00;;;;;;5080901;27;20221;-20
2022/07/12 06:37:38;;;;;;;1.35;0.65;;;21.60;68.80;;;;;;5084620;28;20028;-20
2022/07/12 06:40:04;;;;;;;0.80;0.40;;;21.60;68.60;;;;;;5077200;27;20056;-20
2022/07/12 06:42:29;;;;;;;0.43;0.38;;;21.60;68.50;;;;;;5084869;27;20036;-20
2022/07/12 06:44:55;;;;;;;1.95;0.40;;;21.60;68.60;;;;;;5081178;27;20063;-21
2022/07/12 06:47:21;;;;;;;0.52;0.32;;;21.70;68.60;;;;;;5081962;27;20064;-20
2022/07/12 06:49:46;;;;;;;1.95;0.30;;;21.70;68.50;;;;;;5082799;27;20105;-20
2022/07/12 06:52:12;;;;;;;0.52;0.50;;;21.70;68.60;;;;;;5082338;27;20047;-20
2022/07/12 06:54:37;;;;;;;1.00;0.30;;;21.70;68.40;;;;;;5084602;27;20059;-29
2022/07/12 06:57:03;;;;;;;2.85;0.40;;;21.70;68.50;;;;;;5083187;27;20112;-20
2022/07/12 06:59:29;;;;;;;1.85;0.50;;;21.70;68.40;;;;;;5082922;27;20127;-20
2022/07/12 07:01:57;;;;;;;0.40;0.40;;;21.70;68.30;;;;;;5083401;28;20517;-20
2022/07/12 07:04:23;;;;;;;0.55;0.45;;;21.70;68.20;;;;;;5082371;27;20050;-20
2022/07/12 07:06:48;;;;;;;2.35;0.52;;;21.80;68.20;;;;;;5086216;27;20040;-21
2022/07/12 07:09:14;;;;;;;1.15;0.43;;;21.80;68.20;;;;;;5084143;27;20042;-20
2022/07/12 07:11:40;;;;;;;3.35;0.50;;;21.70;68.30;;;;;;5083153;28;20044;-21
2022/07/12 07:14:06;;;;;;;1.67;0.50;;;21.80;68.30;;;;;;5083581;27;20432;-20
2022/07/12 07:16:32;;;;;;;1.27;0.45;;;21.80;68.60;;;;;;5083395;27;20454;-19
2022/07/12 07:18:57;;;;;;;1.20;0.45;;;21.80;68.40;;;;;;5085897;27;20043;-20
2022/07/12 07:21:23;;;;;;;2.38;0.60;;;21.80;68.40;;;;;;5083115;27;20402;-20
2022/07/12 07:23:49;;;;;;;0.75;0.52;;;21.80;68.20;;;;;;5084544;27;20120;-19
2022/07/12 07:26:15;;;;;;;0.70;0.70;;;21.80;68.30;;;;;;5082218;27;20120;-20
2022/07/12 07:31:24;;;;;;;0.47;0.47;;;21.70;68.40;;;;;;5082450;28;20497;-20
2022/07/12 07:33:50;;;;;;;2.17;0.50;;;21.80;68.20;;;;;;5086771;27;20032;-20
2022/07/12 07:36:15;;;;;;;3.15;0.50;;;21.80;68.40;;;;;;5084023;27;20040;-20
2022/07/12 07:38:41;;;;;;;0.40;0.40;;;21.80;68.10;;;;;;5087750;27;20044;-20
2022/07/12 07:41:06;;;;;;;0.50;0.30;;;21.80;68.10;;;;;;5087037;27;20502;-20
2022/07/12 07:43:33;;;;;;;2.08;0.50;;;21.80;68.00;;;;;;5087552;28;20040;-20
2022/07/12 07:45:59;;;;;;;0.50;0.47;;;21.80;68.10;;;;;;5088452;27;20033;-20
2022/07/12 07:48:24;;;;;;;0.52;0.52;;;21.80;68.00;;;;;;5086922;27;20044;-22
2022/07/12 07:50:50;;;;;;;1.58;0.40;;;21.80;67.80;;;;;;5087229;27;20410;-20
2022/07/12 07:53:16;;;;;;;0.47;0.38;;;21.80;67.90;;;;;;5086717;28;20112;-19
2022/07/12 07:55:41;;;;;;;0.70;0.30;;;21.90;67.80;;;;;;5087515;27;20417;-20
2022/07/12 07:58:07;;;;;;;0.60;0.40;;;21.80;67.80;;;;;;5086942;27;20048;-20
2022/07/12 08:00:32;;;;;;;0.20;0.20;;;21.90;67.80;;;;;;5088561;27;20044;-20
2022/07/12 08:02:58;;;;;;;0.57;0.40;;;21.90;68.50;;;;;;5087691;27;20105;-20
2022/07/12 08:05:24;;;;;;;0.50;0.38;;;21.90;67.70;;;;;;5087449;27;20123;-19
2022/07/12 08:07:49;;;;;;;0.40;0.35;;;21.90;67.70;;;;;;5086326;27;20045;-20
2022/07/12 08:10:15;;;;;;;0.40;0.30;;;21.90;67.60;;;;;;5086870;27;20057;-19
2022/07/12 08:12:41;;;;;;;0.73;0.45;;;21.90;67.60;;;;;;5088842;27;20044;-20
2022/07/12 08:15:07;;;;;;;0.47;0.40;;;21.90;67.60;;;;;;5085433;27;20040;-19
2022/07/12 08:17:32;;;;;;;1.10;0.30;;;21.90;67.60;;;;;;5087341;27;20103;-20
2022/07/12 08:19:58;;;;;;;0.40;0.30;;;21.90;67.50;;;;;;5086627;27;20524;-28
2022/07/12 08:22:24;;;;;;;0.52;0.30;;;21.90;67.40;;;;;;5086227;27;20515;-20
2022/07/12 08:24:49;;;;;;;0.77;0.55;;;22.00;67.50;;;;;;5087386;27;20518;-20
2022/07/12 08:27:15;;;;;;;0.60;0.30;;;21.90;67.50;;;;;;5086682;27;20493;-19
2022/07/12 08:29:41;;;;;;;0.50;0.22;;;22.00;67.50;;;;;;5083351;27;20052;-19
2022/07/12 08:32:07;;;;;;;0.35;0.35;;;22.00;67.40;;;;;;5085900;27;20503;-19
2022/07/12 08:34:33;;;;;;;3.78;0.50;;;22.00;67.40;;;;;;5085951;28;20121;-20
2022/07/12 08:36:59;;;;;;;0.60;0.28;;;22.00;67.40;;;;;;5087137;27;20090;-20
2022/07/12 08:39:25;;;;;;;0.50;0.30;;;22.00;67.40;;;;;;5085803;27;20581;-20
2022/07/12 08:41:50;;;;;;;0.30;0.30;;;22.00;67.30;;;;;;5086611;27;20047;-19
2022/07/12 08:44:16;;;;;;;0.22;0.22;;;22.00;67.30;;;;;;5084668;27;20107;-19
2022/07/12 08:46:42;;;;;;;1.20;0.30;;;22.00;67.40;;;;;;5085437;27;20426;-19
2022/07/12 08:49:07;;;;;;;1.20;0.30;;;22.00;67.30;;;;;;5083646;28;20054;-19
2022/07/12 08:51:33;;;;;;;1.67;0.30;;;22.00;68.10;;;;;;5089098;28;20048;-19
2022/07/12 08:54:05;;;;;;;0.30;0.30;;;22.00;67.10;;;;;;5085430;27;20032;-20
2022/07/12 08:56:39;;;;;;;0.73;0.38;;;22.10;67.30;;;;;;5082637;28;20047;-19
2022/07/12 08:59:15;;;;;;;0.60;0.60;;;22.00;67.30;;;;;;5086021;28;20040;-20
2022/07/12 09:01:49;;;;;;;0.45;0.45;;;22.10;67.10;;;;;;5085687;27;20285;-20
2022/07/12 09:04:17;;;;;;;0.45;0.17;;;22.10;67.20;;;;;;5084689;28;20051;-20
2022/07/12 09:06:42;;;;;;;0.40;0.22;;;22.10;67.20;;;;;;5088775;28;20040;-19
2022/07/12 09:09:08;;;;;;;1.05;0.35;;;22.10;67.90;;;;;;5085775;27;20048;-26
2022/07/12 09:11:40;;;;;;;0.60;0.25;;;22.10;67.20;;;;;;5084576;28;20081;-19
2022/07/12 09:14:07;;;;;;;0.60;0.30;;;22.10;67.10;;;;;;5084555;28;20039;-20
2022/07/12 09:16:32;;;;;;;0.40;0.30;;;22.10;67.20;;;;;;5083678;28;20421;-20
2022/07/12 09:19:17;;;;;;;0.57;0.25;;;22.10;67.00;;;;;;5086406;28;20048;-26
2022/07/12 09:21:50;;;;;;;0.35;0.20;;;22.10;66.90;;;;;;5085960;28;20040;-19
2022/07/12 09:24:17;;;;;;;0.40;0.40;;;22.10;67.00;;;;;;5084682;27;20048;-25
2022/07/12 09:26:43;;;;;;;0.20;0.10;;;22.20;67.00;;;;;;5085669;27;20032;-20
2022/07/12 09:29:13;;;;;;;0.30;0.30;;;22.20;67.00;;;;;;5086369;27;20043;-19
2022/07/12 09:37:16;;;;;;;;;;;22.20;66.90;;;;;;5085796;27;20123;-24
2022/07/12 09:39:42;;;;;;;0.20;0.20;;;22.20;66.80;;;;;;5086671;28;20085;-19
2022/07/12 09:42:10;;;;;;;0.20;0.20;;;22.20;66.90;;;;;;5084639;27;20038;-19
2022/07/12 09:44:35;;;;;;;0.28;0.28;;;22.20;66.80;;;;;;5084819;27;20048;-20
2022/07/12 09:47:01;;;;;;;0.50;0.20;;;22.20;66.70;;;;;;5083917;27;20126;-19
2022/07/12 09:49:27;;;;;;;0.40;0.40;;;22.20;66.70;;;;;;5083378;27;20051;-20
2022/07/12 09:51:56;;;;;;;0.28;0.28;;;22.30;66.70;;;;;;5086263;27;20038;-19
2022/07/12 09:54:27;;;;;;;0.68;0.20;;;22.30;66.60;;;;;;5085839;27;20043;-20
2022/07/12 09:56:58;;;;;;;0.30;0.30;;;22.30;66.60;;;;;;5084370;27;20409;-20
2022/07/12 09:59:24;;;;;;;0.20;0.15;;;22.30;66.70;;;;;;5099081;27;20040;-20
2022/07/12 10:01:51;;;;;;;0.47;0.20;;;22.30;67.40;;;;;;5083334;28;20460;-21
2022/07/12 10:04:20;;;;;;;0.20;0.20;;;22.30;66.70;;;;;;5082667;27;20071;-21
2022/07/12 10:06:47;;;;;;;0.13;0.10;;;22.30;66.60;;;;;;5086814;27;20135;-20
2022/07/12 10:09:12;;;;;;;0.22;0.22;;;22.30;66.70;;;;;;5066983;28;20044;-20
2022/07/12 10:11:38;;;;;;;0.40;0.20;;;22.30;66.60;;;;;;5085007;28;20116;-26
2022/07/12 10:14:03;;;;;;;0.30;0.20;;;22.30;66.50;;;;;;5082811;28;20032;-20
2022/07/12 10:16:29;;;;;;;0.70;0.20;;;22.30;66.40;;;;;;5082692;28;20043;-22
2022/07/12 10:19:25;;;;;;;0.47;0.20;;;22.30;66.50;;;;;;5085540;28;20039;-20
2022/07/12 10:21:52;;;;;;;0.22;0.20;;;22.40;66.50;;;;;;5083622;27;20040;-19
2022/07/12 10:24:33;;;;;;;0.35;0.20;;;22.30;66.40;;;;;;5084120;27;20043;-20
2022/07/12 10:26:59;;;;;;;0.20;0.20;;;22.40;66.40;;;;;;5083688;27;20050;-19
2022/07/12 10:29:25;;;;;;;0.25;0.22;;;22.40;66.40;;;;;;5083940;27;20040;-19
2022/07/12 10:31:51;;;;;;;0.15;0.15;;;22.40;66.30;;;;;;5083926;28;20042;-20
2022/07/12 10:34:23;;;;;;;0.28;0.20;;;22.40;66.20;;;;;;5083457;27;20037;-20
2022/07/12 10:36:55;;;;;;;0.10;0.10;;;22.40;66.20;;;;;;5085217;27;20059;-19
2022/07/12 10:39:27;;;;;;;0.13;0.10;;;22.40;66.10;;;;;;5084676;27;20517;-20
2022/07/12 10:42:07;;;;;;;0.20;0.20;;;22.40;66.20;;;;;;5083817;27;20044;-20
2022/07/12 10:44:37;;;;;;;0.17;0.17;;;22.40;66.20;;;;;;5083495;28;20649;-20
2022/07/12 10:47:03;;;;;;;0.30;0.20;;;22.40;66.90;;;;;;5082227;28;20044;-20
2022/07/12 10:49:30;;;;;;;0.65;0.13;;;22.50;66.10;;;;;;5082520;27;20953;-20
2022/07/12 10:52:10;;;;;;;0.10;0.10;;;22.40;66.10;;;;;;5085389;27;20063;-21
2022/07/12 10:54:40;;;;;;;0.20;0.20;;;22.40;65.90;;;;;;5085260;27;20040;-20
2022/07/12 10:57:06;;;;;;;0.20;0.20;;;22.50;66.00;;;;;;5084970;27;20044;-20
2022/07/12 10:59:36;;;;;;;0.15;0.15;;;22.50;66.00;;;;;;5083111;27;20048;-19
2022/07/12 11:02:02;;;;;;;0.15;0.15;;;22.50;65.90;;;;;;5084302;28;20138;-20
2022/07/12 11:04:28;;;;;;;0.20;0.20;;;22.50;65.90;;;;;;5083622;27;20112;-19
2022/07/12 11:06:58;;;;;;;0.20;0.20;;;22.50;65.80;;;;;;5087014;27;20575;-20
2022/07/12 11:09:24;;;;;;;0.20;0.20;;;22.50;65.90;;;;;;5083572;27;20379;-20
2022/07/12 11:11:51;;;;;;;0.30;0.25;;;22.50;65.80;;;;;;5087031;27;20033;-20
2022/07/12 11:14:25;;;;;;;0.20;0.20;;;22.50;65.70;;;;;;5088314;27;20075;-20
2022/07/12 11:16:56;;;;;;;0.35;0.20;;;22.50;65.80;;;;;;5086990;27;20044;-20
2022/07/12 11:19:23;;;;;;;0.20;0.20;;;22.50;65.70;;;;;;5085957;27;20062;-20
2022/07/12 11:21:54;;;;;;;0.40;0.30;;;22.50;65.70;;;;;;5088882;28;20040;-20
2022/07/12 11:24:24;;;;;;;0.25;0.20;;;22.50;65.70;;;;;;5087358;27;20105;-19
2022/07/12 11:26:50;;;;;;;0.20;0.20;;;22.50;65.60;;;;;;5087000;27;20127;-21
2022/07/12 11:29:16;;;;;;;0.20;0.20;;;22.50;65.70;;;;;;5087814;28;20171;-20
2022/07/12 11:31:42;;;;;;;0.32;0.20;;;22.50;65.60;;;;;;5087526;27;20051;-20
2022/07/12 11:34:08;;;;;;;0.10;0.10;;;22.50;65.60;;;;;;5087766;27;20044;-19
2022/07/12 11:36:34;;;;;;;0.20;0.17;;;22.60;65.60;;;;;;5085122;28;20054;-29
2022/07/12 11:39:02;;;;;;;0.20;0.20;;;22.60;65.60;;;;;;5085731;28;20044;-21
2022/07/12 11:41:28;;;;;;;0.20;0.20;;;22.60;65.50;;;;;;5087369;28;20048;-20
2022/07/12 11:43:53;;;;;;;0.15;0.15;;;22.60;65.50;;;;;;5084156;28;20550;-20
2022/07/12 11:46:19;;;;;;;0.25;0.20;;;22.60;65.50;;;;;;5087879;27;20044;-20
2022/07/12 11:48:45;;;;;;;0.10;0.10;;;22.60;65.50;;;;;;5087595;28;20505;-20
2022/07/12 11:51:11;;;;;;;0.10;0.10;;;22.60;65.40;;;;;;5085406;28;20040;-19
2022/07/12 11:53:37;;;;;;;0.10;0.10;;;22.60;65.40;;;;;;5087351;27;21493;-19
2022/07/12 11:56:04;;;;;;;0.10;0.10;;;22.60;65.30;;;;;;5082766;28;20037;-20
2022/07/12 11:58:32;;;;;;;0.20;0.20;;;22.60;65.30;;;;;;5087062;28;20035;-20
2022/07/12 12:00:58;;;;;;;0.20;0.20;;;22.70;65.30;;;;;;5088039;27;20089;-19
2022/07/12 12:03:23;;;;;;;0.20;0.10;;;22.70;65.30;;;;;;5085285;27;20131;-20
2022/07/12 12:05:50;;;;;;;0.25;0.25;;;22.70;65.30;;;;;;5085987;28;20040;-20
2022/07/12 12:08:17;;;;;;;0.13;0.13;;;22.70;65.20;;;;;;5086584;28;20092;-20
2022/07/12 12:10:44;;;;;;;0.20;0.20;;;22.70;65.30;;;;;;5084355;27;20075;-20
2022/07/12 12:13:17;;;;;;;0.13;0.13;;;22.70;65.20;;;;;;5086512;28;20042;-19
2022/07/12 12:15:52;;;;;;;0.10;0.10;;;22.70;65.20;;;;;;5086953;27;20040;-20
2022/07/12 12:18:28;;;;;;;0.32;0.30;;;22.70;65.20;;;;;;5086033;28;20036;-21
2022/07/12 12:20:58;;;;;;;0.10;0.10;;;22.70;65.10;;;;;;5084866;27;20502;-20
2022/07/12 12:23:24;;;;;;;0.20;0.20;;;22.70;65.10;;;;;;5082013;28;20043;-21
2022/07/12 12:25:49;;;;;;;0.20;0.20;;;22.80;65.00;;;;;;4729974;28;10000264;-20
2022/07/12 12:28:15;;;;;;;0.10;0.10;;;22.80;65.00;;;;;;5081227;28;20489;-20
2022/07/12 12:30:54;;;;;;;0.10;0.10;;;22.80;65.00;;;;;;5081281;27;20570;-22
2022/07/12 12:33:39;;;;;;;0.10;0.10;;;22.80;64.90;;;;;;5079848;28;20044;-20
2022/07/12 12:36:32;;;;;;;0.20;0.17;;;22.80;64.90;;;;;;5080497;28;20052;-24
2022/07/12 12:38:58;;;;;;;0.10;0.10;;;22.80;64.90;;;;;;5079769;28;20055;-22
2022/07/12 12:41:25;;;;;;;0.63;0.10;;;22.80;64.80;;;;;;5080902;28;20044;-22
2022/07/12 12:43:58;;;;;;;0.10;0.10;;;22.80;64.80;;;;;;5079416;27;20058;-21
2022/07/12 12:46:44;;;;;;;0.10;0.08;;;22.80;64.80;;;;;;5079706;27;20043;-24
2022/07/12 12:49:10;;;;;;;0.20;0.20;;;22.80;64.80;;;;;;5080994;27;20041;-21
2022/07/12 12:51:53;;;;;;;0.20;0.20;;;22.80;64.80;;;;;;5081944;27;20028;-22
2022/07/12 12:54:36;;;;;;;0.35;0.10;;;22.90;65.00;;;;;;5082267;27;20050;-22
2022/07/12 12:57:01;;;;;;;0.38;0.22;;;22.90;64.80;;;;;;5080640;28;20072;-21
2022/07/12 12:59:27;;;;;;;0.10;0.10;;;22.90;64.80;;;;;;5079117;27;20131;-24
2022/07/12 13:01:53;;;;;;;0.17;0.17;;;22.90;64.80;;;;;;5080581;27;20514;-22
2022/07/12 13:04:18;;;;;;;1.38;0.10;;;22.90;64.80;;;;;;5082237;27;20049;-22